Time;durP1;ratioP1;P1;durP2;ratioP2;P2;SDS_P1;SDS_P2;PMS_P1;PMS_P2;Temp;Humidity;BMP_temperature;BMP_pressure;BME280_temperature;BME280_humidity;BME280_pressure;Samples;Min_cycle;Max_cycle;Signal;HPM_P1;HPM_P2
2022/05/29 00:00:13;;;;;;;4.25;3.42;;;;;;;17.60;nan;98928.81;4983956;28;20031;-74
2022/05/29 00:02:40;;;;;;;5.13;4.05;;;;;;;17.39;nan;98919.06;4985177;28;20042;-72
2022/05/29 00:05:06;;;;;;;5.05;3.90;;;;;;;17.28;nan;98935.66;4983307;28;20570;-74
2022/05/29 00:07:32;;;;;;;6.43;3.92;;;;;;;17.29;nan;98920.47;4984786;28;20386;-74
2022/05/29 00:09:58;;;;;;;4.32;3.50;;;;;;;17.36;nan;98911.47;4982266;28;20027;-74
2022/05/29 00:12:24;;;;;;;3.92;3.25;;;;;;;17.34;nan;98912.69;5000269;28;20045;-75
2022/05/29 00:14:50;;;;;;;6.38;3.97;;;;;;;17.48;nan;98927.72;4983222;28;20038;-74
2022/05/29 00:17:18;;;;;;;5.88;3.40;;;;;;;17.51;nan;98922.78;4984314;28;20031;-75
2022/05/29 00:19:44;;;;;;;6.57;3.50;;;;;;;17.59;nan;98927.94;4983971;28;20026;-74
2022/05/29 00:22:14;;;;;;;5.57;3.65;;;;;;;17.53;nan;98928.75;4983271;28;20030;-75
2022/05/29 00:24:41;;;;;;;4.07;2.97;;;;;;;17.48;nan;98925.88;4998636;28;20046;-76
2022/05/29 00:27:07;;;;;;;3.65;3.35;;;;;;;17.54;nan;98922.41;4983097;28;20418;-75
2022/05/29 00:29:35;;;;;;;5.72;3.40;;;;;;;17.55;nan;98926.69;4985169;28;20034;-75
2022/05/29 00:32:02;;;;;;;4.47;3.28;;;;;;;17.45;nan;98918.25;4997287;28;20035;-76
2022/05/29 00:34:27;;;;;;;5.30;3.67;;;;;;;17.53;nan;98910.06;4985320;28;20548;-74
2022/05/29 00:36:53;;;;;;;4.30;2.95;;;;;;;17.61;nan;98911.78;4982318;28;20034;-75
2022/05/29 00:39:18;;;;;;;7.35;3.72;;;;;;;17.55;nan;98910.69;4983634;28;20042;-76
2022/05/29 00:41:45;;;;;;;3.85;3.42;;;;;;;17.43;nan;98912.31;4983372;28;20207;-75
2022/05/29 00:44:28;;;;;;;4.88;3.40;;;;;;;17.48;nan;98899.19;4983132;28;20059;-74
2022/05/29 00:47:10;;;;;;;3.58;3.20;;;;;;;17.52;nan;98905.75;4996831;28;20034;-75
2022/05/29 00:49:37;;;;;;;5.10;3.55;;;;;;;17.56;nan;98896.31;4979797;28;20041;-75
2022/05/29 00:52:18;;;;;;;4.88;3.28;;;;;;;17.51;nan;98897.94;4984646;28;20704;-74
2022/05/29 00:54:53;;;;;;;4.57;3.58;;;;;;;17.40;nan;98894.03;4983202;28;20465;-75
2022/05/29 00:57:34;;;;;;;4.95;3.97;;;;;;;17.25;nan;98888.06;4981917;28;20038;-74
2022/05/29 01:00:10;;;;;;;6.22;3.38;;;;;;;17.23;nan;98890.09;4974521;28;20049;-74
2022/05/29 01:02:37;;;;;;;3.92;3.45;;;;;;;17.21;nan;98884.16;4980103;28;20039;-75
2022/05/29 01:05:05;;;;;;;5.32;3.60;;;;;;;17.26;nan;98884.34;4983531;28;20034;-76
2022/05/29 01:07:31;;;;;;;5.30;3.50;;;;;;;17.31;nan;98892.59;4981163;28;20051;-75
2022/05/29 01:09:59;;;;;;;4.53;3.33;;;;;;;17.15;nan;98887.63;4984499;28;20069;-77
2022/05/29 01:12:53;;;;;;;5.53;3.78;;;;;;;17.05;nan;98881.84;4984511;28;20022;-75
2022/05/29 01:15:45;;;;;;;5.03;3.30;;;;;;;17.07;nan;98882.47;4983798;28;20042;-75
2022/05/29 01:18:34;;;;;;;6.72;4.10;;;;;;;17.05;nan;98876.53;4981017;28;20459;-75
2022/05/29 01:21:21;;;;;;;4.85;3.50;;;;;;;17.01;nan;98868.13;4996507;28;20399;-75
2022/05/29 01:24:19;;;;;;;6.85;3.50;;;;;;;17.08;nan;98876.13;4982725;28;20046;-74
2022/05/29 01:27:03;;;;;;;8.10;3.65;;;;;;;17.11;nan;98870.38;4982169;28;20042;-75
2022/05/29 01:29:36;;;;;;;4.60;3.60;;;;;;;17.10;nan;98868.75;4976514;28;20533;-74
2022/05/29 01:32:11;;;;;;;6.13;3.33;;;;;;;17.08;nan;98854.81;4977707;28;20101;-75
2022/05/29 01:34:42;;;;;;;4.50;3.65;;;;;;;17.15;nan;98855.63;4983370;28;20105;-76
2022/05/29 01:37:08;;;;;;;6.35;3.15;;;;;;;17.05;nan;98855.19;4981954;28;20479;-76
2022/05/29 01:39:48;;;;;;;5.00;3.70;;;;;;;16.98;nan;98857.00;4982968;28;20034;-75
2022/05/29 01:42:37;;;;;;;4.55;3.30;;;;;;;16.92;nan;98850.66;4982311;28;20110;-76
2022/05/29 01:45:16;;;;;;;5.80;3.45;;;;;;;16.77;nan;98850.00;4977945;28;20476;-75
2022/05/29 01:47:55;;;;;;;8.25;4.10;;;;;;;16.81;nan;98843.22;4982439;28;20038;-75
2022/05/29 01:50:32;;;;;;;3.80;3.20;;;;;;;16.73;nan;98852.22;4983235;28;20026;-76
2022/05/29 01:53:17;;;;;;;3.90;3.60;;;;;;;16.72;nan;98850.59;4983797;28;20031;-75
2022/05/29 01:55:53;;;;;;;4.53;3.28;;;;;;;16.71;nan;98838.28;4982574;28;20039;-75
2022/05/29 01:58:28;;;;;;;4.82;3.25;;;;;;;16.71;nan;98830.28;4980186;28;20070;-75
2022/05/29 02:00:59;;;;;;;4.03;3.20;;;;;;;16.71;nan;98830.28;4983318;28;20040;-75
2022/05/29 02:03:34;;;;;;;3.88;3.45;;;;;;;16.73;nan;98832.75;4979500;28;20049;-75
2022/05/29 02:06:09;;;;;;;7.95;3.58;;;;;;;16.62;nan;98842.13;4983331;28;20034;-75
2022/05/29 02:08:48;;;;;;;3.45;3.25;;;;;;;16.69;nan;98840.31;4982770;28;20097;-75
2022/05/29 02:11:21;;;;;;;7.28;4.20;;;;;;;16.76;nan;98846.50;4981573;28;20070;-76
2022/05/29 02:13:50;;;;;;;5.07;3.70;;;;;;;16.75;nan;98844.84;4980828;28;20042;-76
2022/05/29 02:16:21;;;;;;;5.45;3.10;;;;;;;16.75;nan;98844.84;4981053;28;20087;-75
2022/05/29 02:18:53;;;;;;;5.07;3.90;;;;;;;16.61;nan;98843.16;4980768;28;20080;-75
2022/05/29 02:21:32;;;;;;;4.60;3.65;;;;;;;16.61;nan;98835.16;4981657;28;20075;-76
2022/05/29 02:24:04;;;;;;;4.03;3.42;;;;;;;16.63;nan;98819.81;4979485;28;20030;-76
2022/05/29 02:26:35;;;;;;;4.72;3.45;;;;;;;16.65;nan;98828.44;4997268;28;20791;-75
2022/05/29 02:29:08;;;;;;;5.57;3.58;;;;;;;16.67;nan;98821.03;4978900;28;20134;-76
2022/05/29 02:31:52;;;;;;;3.78;3.40;;;;;;;16.61;nan;98816.50;4976129;28;20039;-75
2022/05/29 02:34:18;;;;;;;4.68;3.70;;;;;;;16.60;nan;98809.56;4979910;28;20076;-76
2022/05/29 02:37:17;;;;;;;6.85;3.70;;;;;;;16.62;nan;98815.50;4981294;28;20026;-74
2022/05/29 02:39:55;;;;;;;5.78;4.00;;;;;;;16.59;nan;98823.03;4981086;28;20045;-75
2022/05/29 02:42:34;;;;;;;4.80;4.35;;;;;;;16.62;nan;98822.66;4982289;28;20122;-76
2022/05/29 02:45:29;;;;;;;4.50;4.10;;;;;;;16.45;nan;98811.50;4979995;28;20042;-76
2022/05/29 02:48:02;;;;;;;6.18;3.60;;;;;;;16.47;nan;98820.13;4961213;28;20057;-75
2022/05/29 02:50:43;;;;;;;6.88;3.60;;;;;;;16.50;nan;98819.72;4979383;28;20553;-76
2022/05/29 02:53:14;;;;;;;4.82;4.13;;;;;;;16.39;nan;98817.63;4978572;28;20031;-75
2022/05/29 02:55:44;;;;;;;5.03;3.70;;;;;;;16.36;nan;98820.69;4981448;28;20050;-75
2022/05/29 02:58:19;;;;;;;3.70;3.40;;;;;;;16.33;nan;98818.41;4980958;28;20041;-76
2022/05/29 03:00:57;;;;;;;4.07;3.72;;;;;;;16.39;nan;98817.63;4980817;28;20038;-76
2022/05/29 03:03:22;;;;;;;4.22;3.60;;;;;;;16.38;nan;98806.13;4982066;28;20111;-75
2022/05/29 03:06:17;;;;;;;4.00;3.60;;;;;;;16.37;nan;98806.34;4980420;28;20026;-76
2022/05/29 03:08:59;;;;;;;7.43;3.58;;;;;;;16.36;nan;98802.06;4976112;28;20554;-76
2022/05/29 03:11:29;;;;;;;3.65;3.25;;;;;;;16.36;nan;98802.06;4982028;28;20154;-76
2022/05/29 03:14:13;;;;;;;5.30;3.00;;;;;;;16.29;nan;98801.19;4994512;28;20439;-76
2022/05/29 03:16:47;;;;;;;4.60;3.08;;;;;;;16.23;nan;98797.47;4977705;28;20031;-76
2022/05/29 03:19:24;;;;;;;5.50;3.33;;;;;;;16.25;nan;98799.94;4980897;28;20034;-75
2022/05/29 03:21:55;;;;;;;2.83;2.63;;;;;;;16.31;nan;98799.97;4981951;28;20146;-76
2022/05/29 03:24:39;;;;;;;6.70;2.78;;;;;;;16.36;nan;98792.22;4979562;28;20048;-76
2022/05/29 03:27:19;;;;;;;3.65;3.28;;;;;;;16.29;nan;98793.19;4977151;28;20038;-76
2022/05/29 03:29:52;;;;;;;3.67;3.17;;;;;;;16.23;nan;98791.31;4980570;28;20089;-75
2022/05/29 03:32:20;;;;;;;6.50;3.45;;;;;;;16.21;nan;98794.19;4981032;28;20454;-76
2022/05/29 03:34:45;;;;;;;6.15;3.28;;;;;;;16.11;nan;98793.72;4980282;28;20037;-75
2022/05/29 03:37:11;;;;;;;4.03;3.05;;;;;;;16.10;nan;98791.25;4980446;28;20383;-75
2022/05/29 03:39:36;;;;;;;6.22;3.05;;;;;;;16.11;nan;98792.91;4981114;28;20022;-75
2022/05/29 03:42:03;;;;;;;5.28;3.42;;;;;;;16.18;nan;98791.09;4979275;28;20395;-75
2022/05/29 03:44:28;;;;;;;6.80;2.88;;;;;;;16.21;nan;98788.03;4982056;28;20030;-76
2022/05/29 03:46:54;;;;;;;3.70;3.22;;;;;;;16.10;nan;98796.56;4978999;28;20035;-76
2022/05/29 03:49:21;;;;;;;4.38;3.97;;;;;;;15.94;nan;98793.22;4981067;28;20118;-75
2022/05/29 03:51:47;;;;;;;8.07;4.03;;;;;;;15.96;nan;98791.16;4979722;28;20030;-75
2022/05/29 03:54:14;;;;;;;5.75;4.25;;;;;;;16.01;nan;98797.75;4980008;28;20081;-75
2022/05/29 03:56:40;;;;;;;4.40;3.53;;;;;;;16.06;nan;98800.66;4980488;28;20133;-75
2022/05/29 03:59:05;;;;;;;5.13;3.17;;;;;;;15.93;nan;98802.22;4979070;28;20038;-76
2022/05/29 04:01:32;;;;;;;4.10;3.20;;;;;;;15.91;nan;98801.56;4981378;28;20023;-76
2022/05/29 04:03:58;;;;;;;6.75;3.28;;;;;;;15.99;nan;98808.59;4978258;28;20039;-76
2022/05/29 04:06:26;;;;;;;3.05;2.75;;;;;;;15.92;nan;98805.06;4981539;28;20501;-76
2022/05/29 04:14:25;;;;;;;4.40;2.70;;;;;;;15.81;nan;98814.41;4978526;28;20041;-75
2022/05/29 04:16:52;;;;;;;4.35;2.75;;;;;;;15.79;nan;98811.13;4981425;28;20046;-75
2022/05/29 04:19:18;;;;;;;4.43;2.60;;;;;;;15.78;nan;98804.19;4979292;28;20383;-75
2022/05/29 04:21:44;;;;;;;3.15;2.58;;;;;;;15.78;nan;98809.50;4981457;28;20027;-76
2022/05/29 04:24:10;;;;;;;6.13;2.83;;;;;;;15.76;nan;98811.50;4984340;28;20038;-76
2022/05/29 04:26:36;;;;;;;4.20;3.20;;;;;;;15.83;nan;98800.94;4982253;28;20475;-76
2022/05/29 04:29:03;;;;;;;3.03;2.65;;;;;;;15.77;nan;98807.84;4985426;28;20113;-76
2022/05/29 04:31:30;;;;;;;8.35;2.70;;;;;;;15.74;nan;98797.56;4981987;28;20038;-76
2022/05/29 04:33:56;;;;;;;3.08;2.47;;;;;;;15.79;nan;98799.66;4985252;28;20053;-78
2022/05/29 04:36:21;;;;;;;3.97;2.05;;;;;;;15.88;nan;98796.66;4981979;28;20475;-76
2022/05/29 04:38:47;;;;;;;5.43;2.17;;;;;;;15.91;nan;98785.63;4985061;28;20128;-75
2022/05/29 04:41:12;;;;;;;3.80;2.45;;;;;;;15.96;nan;98796.50;4997775;28;20034;-75
2022/05/29 04:43:38;;;;;;;3.67;2.40;;;;;;;15.92;nan;98789.94;4998925;28;20045;-76
2022/05/29 04:46:04;;;;;;;2.53;2.15;;;;;;;15.93;nan;98791.56;4982125;28;20074;-77
2022/05/29 04:48:29;;;;;;;3.92;2.67;;;;;;;15.90;nan;98796.47;4984613;28;20116;-76
2022/05/29 04:50:59;;;;;;;3.42;2.40;;;;;;;15.81;nan;98803.78;4981485;28;20085;-75
2022/05/29 04:53:26;;;;;;;3.20;2.90;;;;;;;15.74;nan;98802.91;4999604;28;20030;-77
2022/05/29 04:55:54;;;;;;;3.65;2.63;;;;;;;15.70;nan;98806.97;4981917;28;20033;-76
2022/05/29 04:58:20;;;;;;;4.72;2.65;;;;;;;15.77;nan;98802.53;4983833;28;20399;-75
2022/05/29 05:00:46;;;;;;;7.07;2.40;;;;;;;15.87;nan;98810.97;4982771;28;20363;-75
2022/05/29 05:03:11;;;;;;;4.35;2.47;;;;;;;15.95;nan;98805.50;4982870;28;20218;-75
2022/05/29 05:05:37;;;;;;;5.00;2.83;;;;;;;15.95;nan;98810.00;4983470;28;20121;-74
2022/05/29 05:08:03;;;;;;;4.47;2.75;;;;;;;15.90;nan;98818.56;4981340;28;20475;-75
2022/05/29 05:10:29;;;;;;;2.95;2.58;;;;;;;15.93;nan;98806.72;4999159;28;20734;-75
2022/05/29 05:12:54;;;;;;;2.97;2.50;;;;;;;15.93;nan;98804.06;4981547;28;20034;-75
2022/05/29 05:15:21;;;;;;;3.30;2.67;;;;;;;15.84;nan;98807.91;4983647;28;20047;-75
2022/05/29 05:17:46;;;;;;;3.13;2.40;;;;;;;15.87;nan;98810.97;4982392;28;20114;-78
2022/05/29 05:20:12;;;;;;;2.72;2.47;;;;;;;15.89;nan;98816.94;4983856;28;20031;-77
2022/05/29 05:22:38;;;;;;;9.00;2.78;;;;;;;15.96;nan;98816.97;4984518;28;20033;-74
2022/05/29 05:25:04;;;;;;;2.85;2.45;;;;;;;15.86;nan;98816.47;4981079;28;20031;-74
2022/05/29 05:27:29;;;;;;;4.10;3.17;;;;;;;15.75;nan;98814.38;4983934;28;20038;-74
2022/05/29 05:29:55;;;;;;;4.20;2.40;;;;;;;15.79;nan;98820.94;4980872;28;20031;-75
2022/05/29 05:32:20;;;;;;;4.35;2.50;;;;;;;15.75;nan;98815.19;4982603;28;20038;-74
2022/05/29 05:34:46;;;;;;;6.80;2.78;;;;;;;15.75;nan;98820.50;4980941;28;20820;-76
2022/05/29 05:37:12;;;;;;;4.40;3.40;;;;;;;15.69;nan;98815.13;4981401;28;20035;-75
2022/05/29 05:39:39;;;;;;;3.45;2.90;;;;;;;15.63;nan;98822.03;4982027;28;20046;-75
2022/05/29 05:42:05;;;;;;;4.47;3.13;;;;;;;15.47;nan;98811.66;4980795;28;20031;-75
2022/05/29 05:44:31;;;;;;;4.05;2.50;;;;;;;15.49;nan;98812.31;4998296;28;20042;-74
2022/05/29 05:46:56;;;;;;;3.90;2.53;;;;;;;15.56;nan;98808.69;4980415;28;20081;-75
2022/05/29 05:49:23;;;;;;;7.57;2.60;;;;;;;15.54;nan;98815.25;4982848;28;20030;-76
2022/05/29 05:51:50;;;;;;;3.00;2.70;;;;;;;15.54;nan;98807.25;4980947;28;20026;-75
2022/05/29 05:54:16;;;;;;;3.53;2.65;;;;;;;15.55;nan;98820.34;4982205;28;20030;-76
2022/05/29 05:56:50;;;;;;;4.38;2.67;;;;;;;15.60;nan;98808.31;4982154;28;20065;-74
2022/05/29 05:59:16;;;;;;;3.15;2.90;;;;;;;15.56;nan;98813.19;4980771;28;20090;-75
2022/05/29 06:01:42;;;;;;;5.93;2.78;;;;;;;15.61;nan;98818.75;4981934;28;20030;-75
2022/05/29 06:04:08;;;;;;;4.97;2.80;;;;;;;15.62;nan;98811.59;4980746;28;20045;-74
2022/05/29 06:06:34;;;;;;;5.68;2.72;;;;;;;15.57;nan;98806.84;4982327;28;20482;-74
2022/05/29 06:09:00;;;;;;;5.90;2.75;;;;;;;15.62;nan;98804.44;4979750;28;20042;-75
2022/05/29 06:11:28;;;;;;;2.95;2.72;;;;;;;15.62;nan;98804.44;4982628;28;20038;-75
2022/05/29 06:13:54;;;;;;;3.28;2.72;;;;;;;15.64;nan;98807.75;4980313;28;20356;-74
2022/05/29 06:16:20;;;;;;;4.88;2.90;;;;;;;15.61;nan;98808.09;4981179;28;20038;-75
2022/05/29 06:18:45;;;;;;;4.43;3.45;;;;;;;15.53;nan;98797.63;4981495;28;20034;-74
2022/05/29 06:21:11;;;;;;;4.22;3.10;;;;;;;15.45;nan;98792.41;4981254;28;20588;-75
2022/05/29 06:23:38;;;;;;;3.33;2.45;;;;;;;15.44;nan;98799.56;4981929;28;20034;-74
2022/05/29 06:26:12;;;;;;;6.80;3.53;;;;;;;15.50;nan;98798.78;4980088;28;20042;-75
2022/05/29 06:28:38;;;;;;;3.28;2.67;;;;;;;15.56;nan;98806.03;4982181;28;20119;-74
2022/05/29 06:31:10;;;;;;;3.20;2.83;;;;;;;15.61;nan;98813.44;4980253;28;20528;-74
2022/05/29 06:33:37;;;;;;;5.38;2.53;;;;;;;15.64;nan;98813.06;4982446;28;20046;-75
2022/05/29 06:36:17;;;;;;;5.78;3.67;;;;;;;15.74;nan;98813.53;4980144;28;20427;-75
2022/05/29 06:38:45;;;;;;;4.10;2.95;;;;;;;15.76;nan;98816.84;4981139;28;20037;-73
2022/05/29 06:41:15;;;;;;;4.90;2.83;;;;;;;15.78;nan;98808.66;4980550;28;20102;-74
2022/05/29 06:43:41;;;;;;;4.65;2.88;;;;;;;15.79;nan;98805.78;4981616;28;20041;-75
2022/05/29 06:46:09;;;;;;;5.18;3.15;;;;;;;15.76;nan;98806.19;4980228;28;20026;-75
2022/05/29 06:48:37;;;;;;;3.72;2.63;;;;;;;15.72;nan;98806.78;4982221;28;20089;-74
2022/05/29 06:51:11;;;;;;;3.00;2.78;;;;;;;15.73;nan;98811.88;4979970;28;20038;-74
2022/05/29 06:53:37;;;;;;;3.33;2.60;;;;;;;15.65;nan;98819.19;4981926;28;20109;-75
2022/05/29 06:56:05;;;;;;;4.53;2.85;;;;;;;15.56;nan;98829.16;4979427;28;20035;-76
2022/05/29 06:58:30;;;;;;;4.22;2.90;;;;;;;15.49;nan;98826.41;4982603;28;20788;-76
2022/05/29 07:09:17;;;;;;;5.20;2.58;;;;;;;15.83;nan;98833.69;4981702;28;20510;-76
2022/05/29 07:11:45;;;;;;;3.97;2.58;;;;;;;15.83;nan;98832.84;4979426;28;20038;-76
2022/05/29 07:14:10;;;;;;;3.40;2.63;;;;;;;15.81;nan;98835.69;4980506;28;20121;-77
2022/05/29 07:16:37;;;;;;;3.65;2.20;;;;;;;15.71;nan;98835.22;4981812;28;20109;-75
2022/05/29 07:19:04;;;;;;;5.32;3.28;;;;;;;15.66;nan;98837.63;4979559;28;20250;-76
2022/05/29 07:21:33;;;;;;;2.88;2.60;;;;;;;15.72;nan;98836.03;4982362;28;20164;-76
2022/05/29 07:24:01;;;;;;;5.00;2.55;;;;;;;15.79;nan;98832.41;4975810;28;20034;-75
2022/05/29 07:26:26;;;;;;;5.50;2.38;;;;;;;15.88;nan;98831.25;4982241;28;20034;-74
2022/05/29 07:28:52;;;;;;;7.00;2.65;;;;;;;15.87;nan;98834.91;4979639;28;20042;-78
2022/05/29 07:31:18;;;;;;;2.85;2.50;;;;;;;15.88;nan;98831.25;4981266;28;20487;-73
2022/05/29 07:33:44;;;;;;;2.92;2.60;;;;;;;15.87;nan;98834.91;4980956;28;20116;-75
2022/05/29 07:36:11;;;;;;;3.58;2.70;;;;;;;15.89;nan;98832.91;4980338;28;20042;-75
2022/05/29 07:38:38;;;;;;;4.80;2.53;;;;;;;15.93;nan;98834.16;4981351;28;20033;-76
2022/05/29 07:43:18;;;;;;;4.03;2.10;;;;;;;15.98;nan;98834.38;4979036;28;20529;-75
2022/05/29 07:43:53;;;;;;;3.45;3.13;;;;;;;15.95;nan;98836.63;4979633;28;20042;-74
2022/05/29 07:46:19;;;;;;;2.83;2.47;;;;;;;15.88;nan;98841.88;4980864;28;20035;-74
2022/05/29 07:48:44;;;;;;;4.70;2.40;;;;;;;15.81;nan;98835.69;4980420;28;20470;-76
2022/05/29 07:51:10;;;;;;;3.45;2.40;;;;;;;15.87;nan;98829.59;4980211;28;20037;-74
2022/05/29 07:53:37;;;;;;;8.35;2.55;;;;;;;15.88;nan;98836.56;4996667;28;20537;-74
2022/05/29 07:56:03;;;;;;;4.22;2.50;;;;;;;15.80;nan;98839.38;4978935;28;20082;-74
2022/05/29 07:58:29;;;;;;;3.40;2.25;;;;;;;15.71;nan;98834.38;4985423;28;20042;-75
2022/05/29 08:00:55;;;;;;;4.03;2.92;;;;;;;15.71;nan;98835.22;4982693;28;20039;-74
2022/05/29 08:03:22;;;;;;;3.38;2.50;;;;;;;15.78;nan;98836.09;4984770;28;20065;-74
2022/05/29 08:05:48;;;;;;;3.97;2.30;;;;;;;15.89;nan;98832.06;4983751;28;20390;-75
2022/05/29 08:08:14;;;;;;;3.90;2.70;;;;;;;15.93;nan;98836.81;4998802;28;20093;-75
2022/05/29 08:10:41;;;;;;;13.23;2.65;;;;;;;15.90;nan;98845.16;4984427;28;20038;-76
2022/05/29 08:13:07;;;;;;;6.07;2.30;;;;;;;15.97;nan;98840.72;4983140;28;20438;-75
2022/05/29 08:15:34;;;;;;;5.53;2.42;;;;;;;16.04;nan;98850.59;4985133;28;20026;-76
2022/05/29 08:17:59;;;;;;;4.18;2.50;;;;;;;16.09;nan;98841.00;4982499;28;20023;-76
2022/05/29 08:20:26;;;;;;;2.58;2.10;;;;;;;16.19;nan;98843.31;4985329;28;20422;-76
2022/05/29 08:22:51;;;;;;;4.00;2.10;;;;;;;16.19;nan;98838.00;4983010;28;20165;-75
2022/05/29 08:30:53;;;;;;;3.60;2.20;;;;;;;16.27;nan;98853.78;4982562;28;20039;-76
2022/05/29 08:33:24;;;;;;;2.58;2.13;;;;;;;16.28;nan;98852.78;4983076;28;20352;-75
2022/05/29 08:36:04;;;;;;;2.08;1.90;;;;;;;16.29;nan;98854.44;4984658;28;20117;-75
2022/05/29 08:38:30;;;;;;;4.28;2.05;;;;;;;16.31;nan;98855.06;4983760;28;20036;-76
2022/05/29 08:41:02;;;;;;;3.47;1.88;;;;;;;16.32;nan;98854.84;4982022;28;20093;-75
2022/05/29 08:43:40;;;;;;;4.00;1.92;;;;;;;16.31;nan;98852.41;4985184;28;20026;-76
2022/05/29 08:46:20;;;;;;;2.90;2.47;;;;;;;16.33;nan;98850.34;4979913;28;20041;-75
2022/05/29 08:48:48;;;;;;;2.80;2.00;;;;;;;16.34;nan;98846.69;4987016;28;20045;-77
2022/05/29 08:51:35;;;;;;;2.53;1.90;;;;;;;16.39;nan;98849.56;4988511;28;20061;-75
2022/05/29 08:54:19;;;;;;;5.00;2.00;;;;;;;16.43;nan;98856.16;4981159;28;20491;-75
2022/05/29 08:57:01;;;;;;;3.65;1.77;;;;;;;16.37;nan;98849.75;4996989;28;20399;-76
2022/05/29 08:59:53;;;;;;;3.85;2.15;;;;;;;16.41;nan;98855.53;4981570;28;20034;-75
2022/05/29 09:02:50;;;;;;;3.85;2.35;;;;;;;16.25;nan;98853.19;4982402;28;20042;-75
2022/05/29 09:05:18;;;;;;;2.53;2.25;;;;;;;16.32;nan;98854.84;4983226;28;20043;-75
2022/05/29 09:07:46;;;;;;;4.55;2.28;;;;;;;16.38;nan;98855.91;4982777;28;20042;-74
2022/05/29 09:10:20;;;;;;;2.35;2.13;;;;;;;16.31;nan;98861.22;4982750;28;20034;-75
2022/05/29 09:12:53;;;;;;;2.20;2.00;;;;;;;16.28;nan;98863.44;4997968;28;20113;-75
2022/05/29 09:15:46;;;;;;;5.25;2.10;;;;;;;16.29;nan;98865.91;4983185;28;20034;-73
2022/05/29 09:18:32;;;;;;;2.75;2.22;;;;;;;16.34;nan;98867.97;4982145;28;20499;-74
2022/05/29 09:21:05;;;;;;;2.40;2.20;;;;;;;16.27;nan;98867.09;4981439;28;20115;-75
2022/05/29 09:23:40;;;;;;;3.28;2.83;;;;;;;16.21;nan;98865.22;4984419;28;20057;-75
2022/05/29 09:26:10;;;;;;;3.35;2.33;;;;;;;16.25;nan;98874.50;4980755;28;20395;-75
2022/05/29 09:28:41;;;;;;;2.72;2.50;;;;;;;16.38;nan;98869.22;4983822;28;20029;-75
2022/05/29 09:31:10;;;;;;;2.90;2.05;;;;;;;16.47;nan;98868.06;4981565;28;20475;-75
2022/05/29 09:33:38;;;;;;;3.30;2.43;;;;;;;16.53;nan;98867.28;4998456;28;20034;-76
2022/05/29 09:36:15;;;;;;;2.70;2.50;;;;;;;16.57;nan;98863.19;4981359;28;20022;-76
2022/05/29 09:38:45;;;;;;;3.17;2.20;;;;;;;16.59;nan;98866.50;4998150;28;20109;-75
2022/05/29 09:41:31;;;;;;;2.65;2.13;;;;;;;16.60;nan;98868.16;4982008;28;20026;-76
2022/05/29 09:44:15;;;;;;;6.07;2.38;;;;;;;16.64;nan;98868.56;4992100;28;20035;-76
2022/05/29 09:46:43;;;;;;;7.82;3.58;;;;;;;16.60;nan;98878.81;4979652;28;20035;-74
2022/05/29 09:49:41;;;;;;;6.88;3.20;;;;;;;16.65;nan;98870.22;4983037;28;20022;-74
2022/05/29 09:52:20;;;;;;;6.55;2.75;;;;;;;16.70;nan;98868.59;4978951;28;20031;-76
2022/05/29 09:55:02;;;;;;;3.75;2.80;;;;;;;16.74;nan;98869.84;4982260;28;20030;-76
2022/05/29 09:57:36;;;;;;;3.15;2.28;;;;;;;16.81;nan;98869.06;4998489;28;20034;-77
2022/05/29 10:00:11;;;;;;;2.65;2.45;;;;;;;16.88;nan;98869.91;4980730;28;20066;-76
2022/05/29 10:02:41;;;;;;;4.13;2.75;;;;;;;16.94;nan;98874.44;4978357;28;20134;-76
2022/05/29 10:05:21;;;;;;;4.07;2.50;;;;;;;16.99;nan;98864.81;4982890;28;20505;-76
2022/05/29 10:07:47;;;;;;;4.38;2.55;;;;;;;17.05;nan;98865.84;4982117;28;20050;-76
2022/05/29 10:10:25;;;;;;;3.60;2.70;;;;;;;17.08;nan;98870.81;4983420;28;20019;-76
2022/05/29 10:12:52;;;;;;;4.70;2.28;;;;;;;17.07;nan;98869.16;4980977;28;20030;-75
2022/05/29 10:15:26;;;;;;;2.70;2.45;;;;;;;17.02;nan;98872.41;4980864;28;20038;-74
2022/05/29 10:17:58;;;;;;;4.13;2.90;;;;;;;16.97;nan;98872.19;4980501;28;20475;-75
2022/05/29 10:20:37;;;;;;;3.67;2.55;;;;;;;16.95;nan;98871.56;4982398;28;20487;-76
2022/05/29 10:23:06;;;;;;;3.28;2.88;;;;;;;16.95;nan;98876.09;4977143;28;20065;-75
2022/05/29 10:25:52;;;;;;;4.20;2.42;;;;;;;17.04;nan;98880.19;4982890;28;20077;-75
2022/05/29 10:28:19;;;;;;;3.17;2.10;;;;;;;17.12;nan;98875.53;4982043;28;20432;-75
2022/05/29 10:30:50;;;;;;;4.03;2.50;;;;;;;17.20;nan;98874.50;4980376;28;20069;-75
2022/05/29 10:33:22;;;;;;;3.85;2.55;;;;;;;17.32;nan;98875.56;4981437;28;20065;-74
2022/05/29 10:35:50;;;;;;;7.30;2.38;;;;;;;17.31;nan;98870.44;4980843;28;20096;-75
2022/05/29 10:38:19;;;;;;;2.78;2.28;;;;;;;17.37;nan;98874.97;4981668;28;20067;-73
2022/05/29 10:40:47;;;;;;;3.42;2.63;;;;;;;17.44;nan;98873.94;4981051;28;20026;-77
2022/05/29 10:43:35;;;;;;;3.30;2.35;;;;;;;17.49;nan;98876.03;4981177;28;20037;-77
2022/05/29 10:46:22;;;;;;;3.17;2.22;;;;;;;17.35;nan;98867.16;4979987;28;20129;-75
2022/05/29 10:48:59;;;;;;;3.17;2.47;;;;;;;17.32;nan;98870.22;4980493;28;20038;-75
2022/05/29 10:51:35;;;;;;;2.88;2.50;;;;;;;17.31;nan;98865.13;4994383;28;20045;-76
2022/05/29 10:54:23;;;;;;;3.17;2.88;;;;;;;17.37;nan;98869.63;4983070;28;20100;-76
2022/05/29 10:57:11;;;;;;;5.45;3.00;;;;;;;17.50;nan;98865.13;4980655;28;20516;-76
2022/05/29 11:00:11;;;;;;;3.58;3.25;;;;;;;17.61;nan;98858.41;4977260;28;20050;-76
2022/05/29 11:06:01;;;;;;;4.13;2.67;;;;;;;17.91;nan;98856.13;4977790;28;20387;-76
2022/05/29 11:08:39;;;;;;;3.83;2.72;;;;;;;18.15;nan;98863.50;4977559;28;20137;-76
2022/05/29 11:11:49;;;;;;;3.60;2.78;;;;;;;18.31;nan;98860.41;4976532;28;20039;-75
2022/05/29 11:14:24;;;;;;;3.65;2.50;;;;;;;18.59;nan;98848.63;4958216;28;20054;-74
2022/05/29 11:17:19;;;;;;;2.97;2.67;;;;;;;18.78;nan;98853.91;4980231;28;20057;-75
2022/05/29 11:19:47;;;;;;;3.28;2.50;;;;;;;18.81;nan;98855.31;4979191;28;20035;-75
2022/05/29 11:22:44;;;;;;;3.35;2.38;;;;;;;18.83;nan;98853.25;4981106;28;20485;-75
2022/05/29 11:25:37;;;;;;;2.53;2.30;;;;;;;18.75;nan;98858.84;4977856;28;20047;-76
2022/05/29 11:28:17;;;;;;;4.65;2.60;;;;;;;18.67;nan;98856.44;4991256;28;20066;-76
2022/05/29 11:30:55;;;;;;;3.10;2.65;;;;;;;18.55;nan;98850.91;4996318;28;20402;-75
2022/05/29 11:33:32;;;;;;;3.20;2.83;;;;;;;18.41;nan;98852.75;4985561;28;20415;-77
2022/05/29 11:36:16;;;;;;;4.70;2.97;;;;;;;18.34;nan;98851.97;4979476;28;20097;-78
2022/05/29 11:39:00;;;;;;;7.03;3.95;;;;;;;18.33;nan;98841.47;4984955;28;20114;-77
2022/05/29 11:41:42;;;;;;;5.53;3.28;;;;;;;18.20;nan;98841.53;4982100;28;20062;-78
2022/05/29 11:44:19;;;;;;;3.25;2.60;;;;;;;18.30;nan;98834.72;4981436;28;20038;-78
2022/05/29 11:52:44;;;;;;;2.78;2.47;;;;;;;18.88;nan;98829.38;4985251;28;20038;-76
2022/05/29 11:55:18;;;;;;;2.80;2.60;;;;;;;19.02;nan;98825.63;4981501;28;20043;-74
2022/05/29 11:57:50;;;;;;;4.40;2.55;;;;;;;19.09;nan;98828.22;4999296;28;20037;-77
2022/05/29 12:00:44;;;;;;;4.15;2.97;;;;;;;19.17;nan;98826.13;4983288;28;20468;-76
2022/05/29 12:03:19;;;;;;;3.95;3.53;;;;;;;19.34;nan;98815.72;4981592;28;20065;-76
2022/05/29 12:05:47;;;;;;;3.28;2.97;;;;;;;19.57;nan;98829.38;4984466;28;20139;-77
2022/05/29 12:08:27;;;;;;;4.80;2.65;;;;;;;19.88;nan;98817.78;4983686;28;20117;-76
2022/05/29 12:11:19;;;;;;;3.55;3.25;;;;;;;20.20;nan;98815.00;4996667;28;20121;-76
2022/05/29 12:14:07;;;;;;;7.22;2.85;;;;;;;20.23;nan;98820.72;4982874;28;20035;-77
2022/05/29 12:16:36;;;;;;;3.53;3.00;;;;;;;20.15;nan;98817.50;4983342;28;20049;-78
2022/05/29 12:19:09;;;;;;;4.70;2.85;;;;;;;19.88;nan;98809.75;4983038;28;20116;-76
2022/05/29 12:21:43;;;;;;;4.95;2.90;;;;;;;19.55;nan;98811.91;4982667;28;20435;-76
2022/05/29 12:24:14;;;;;;;4.05;2.80;;;;;;;19.34;nan;98809.56;4984670;28;20371;-78
2022/05/29 12:26:46;;;;;;;3.10;2.80;;;;;;;19.16;nan;98813.78;4983119;28;20031;-77
2022/05/29 12:29:22;;;;;;;3.65;2.75;;;;;;;19.15;nan;98809.47;4984657;28;20026;-76
2022/05/29 12:31:53;;;;;;;4.93;2.72;;;;;;;19.15;nan;98806.78;4982683;28;20103;-76
2022/05/29 12:34:41;;;;;;;4.45;2.42;;;;;;;19.26;nan;98807.97;4984346;28;20043;-77
2022/05/29 12:37:25;;;;;;;3.63;2.60;;;;;;;19.28;nan;98805.06;4980261;28;20034;-77
2022/05/29 12:40:09;;;;;;;6.05;2.60;;;;;;;19.41;nan;98803.13;4981290;28;20137;-75
2022/05/29 12:42:51;;;;;;;3.63;2.42;;;;;;;19.49;nan;98812.78;4978352;28;20026;-75
2022/05/29 12:45:35;;;;;;;6.22;3.13;;;;;;;19.39;nan;98807.88;4983189;28;20069;-76